sensor_id;sensor_type;location;lat;lon;timestamp;pressure;altitude;pressure_sealevel;temperature;humidity
5679;BME280;2862;52.560;13.566;2023-05-12T00:02:57;100936.56;;;14.57;52.87
5679;BME280;2862;52.560;13.566;2023-05-12T00:13:01;100936.31;;;14.41;53.36
5679;BME280;2862;52.560;13.566;2023-05-12T00:23:05;100935.75;;;14.27;53.61
5679;BME280;2862;52.560;13.566;2023-05-12T00:33:08;100934.28;;;14.05;53.96
5679;BME280;2862;52.560;13.566;2023-05-12T00:43:13;100932.19;;;13.99;54.23
5679;BME280;2862;52.560;13.566;2023-05-12T00:53:17;100939.16;;;13.73;54.89
5679;BME280;2862;52.560;13.566;2023-05-12T01:03:21;100934.19;;;13.68;55.27
5679;BME280;2862;52.560;13.566;2023-05-12T01:13:26;100944.94;;;13.68;55.21
5679;BME280;2862;52.560;13.566;2023-05-12T01:23:35;100948.34;;;13.51;55.99
5679;BME280;2862;52.560;13.566;2023-05-12T01:33:41;100960.47;;;13.36;56.32
5679;BME280;2862;52.560;13.566;2023-05-12T01:43:44;100952.13;;;13.29;56.67
5679;BME280;2862;52.560;13.566;2023-05-12T01:53:50;100958.03;;;13.13;57.08
5679;BME280;2862;52.560;13.566;2023-05-12T02:03:53;100955.31;;;13.03;57.55
5679;BME280;2862;52.560;13.566;2023-05-12T02:14:00;100967.94;;;12.72;58.70
5679;BME280;2862;52.560;13.566;2023-05-12T02:24:04;100973.97;;;12.65;58.90
5679;BME280;2862;52.560;13.566;2023-05-12T02:34:10;100985.47;;;12.46;59.68
5679;BME280;2862;52.560;13.566;2023-05-12T02:44:13;100979.34;;;12.34;60.25
5679;BME280;2862;52.560;13.566;2023-05-12T02:54:20;100977.72;;;12.01;61.65
5679;BME280;2862;52.560;13.566;2023-05-12T03:04:23;100987.19;;;11.84;62.51
5679;BME280;2862;52.560;13.566;2023-05-12T03:14:28;100981.19;;;11.81;62.65
5679;BME280;2862;52.560;13.566;2023-05-12T03:24:31;100974.97;;;11.91;62.12
5679;BME280;2862;52.560;13.566;2023-05-12T03:34:36;100991.06;;;11.80;62.67
5679;BME280;2862;52.560;13.566;2023-05-12T03:44:39;100989.06;;;12.05;61.68
5679;BME280;2862;52.560;13.566;2023-05-12T03:54:45;100995.66;;;12.21;61.08
5679;BME280;2862;52.560;13.566;2023-05-12T04:04:49;100996.50;;;12.22;60.98
5679;BME280;2862;52.560;13.566;2023-05-12T04:14:56;101004.47;;;12.64;59.88
5679;BME280;2862;52.560;13.566;2023-05-12T04:24:59;101014.09;;;12.97;58.87
5679;BME280;2862;52.560;13.566;2023-05-12T04:35:04;101013.03;;;12.88;58.82
5679;BME280;2862;52.560;13.566;2023-05-12T04:45:09;101013.16;;;14.43;54.47
5679;BME280;2862;52.560;13.566;2023-05-12T04:55:14;101023.34;;;16.05;48.81
5679;BME280;2862;52.560;13.566;2023-05-12T05:05:18;101019.13;;;21.44;37.15
5679;BME280;2862;52.560;13.566;2023-05-12T05:15:23;101029.44;;;23.80;32.74
5679;BME280;2862;52.560;13.566;2023-05-12T05:25:32;101024.88;;;25.76;29.40
5679;BME280;2862;52.560;13.566;2023-05-12T05:35:41;101024.78;;;26.46;27.21
5679;BME280;2862;52.560;13.566;2023-05-12T05:45:45;101033.69;;;27.88;25.79
5679;BME280;2862;52.560;13.566;2023-05-12T05:55:53;101045.06;;;28.15;25.25
5679;BME280;2862;52.560;13.566;2023-05-12T06:05:57;101045.25;;;29.26;23.64
5679;BME280;2862;52.560;13.566;2023-05-12T06:16:02;101052.22;;;30.48;22.65
5679;BME280;2862;52.560;13.566;2023-05-12T06:26:07;101058.31;;;29.87;22.40
5679;BME280;2862;52.560;13.566;2023-05-12T06:36:12;101078.72;;;28.29;23.57
5679;BME280;2862;52.560;13.566;2023-05-12T06:46:15;101074.81;;;28.37;23.58
5679;BME280;2862;52.560;13.566;2023-05-12T06:56:20;101073.84;;;29.36;22.52
5679;BME280;2862;52.560;13.566;2023-05-12T07:06:25;101061.75;;;30.23;22.12
5679;BME280;2862;52.560;13.566;2023-05-12T07:16:30;101084.16;;;28.59;23.47
5679;BME280;2862;52.560;13.566;2023-05-12T07:26:33;101081.75;;;28.09;24.34
5679;BME280;2862;52.560;13.566;2023-05-12T07:36:38;101074.28;;;28.16;24.01
5679;BME280;2862;52.560;13.566;2023-05-12T07:46:41;101075.91;;;25.64;27.13
5679;BME280;2862;52.560;13.566;2023-05-12T07:56:44;101082.78;;;23.82;30.06
5679;BME280;2862;52.560;13.566;2023-05-12T08:06:47;101089.72;;;22.96;32.06
5679;BME280;2862;52.560;13.566;2023-05-12T08:16:52;101095.59;;;22.07;33.07
5679;BME280;2862;52.560;13.566;2023-05-12T08:26:55;101092.34;;;21.76;31.07
5679;BME280;2862;52.560;13.566;2023-05-12T08:36:59;101085.25;;;21.60;33.49
5679;BME280;2862;52.560;13.566;2023-05-12T08:47:04;101092.28;;;22.26;30.97
5679;BME280;2862;52.560;13.566;2023-05-12T08:57:09;101088.03;;;21.66;30.45
5679;BME280;2862;52.560;13.566;2023-05-12T09:07:12;101092.13;;;21.11;31.94
5679;BME280;2862;52.560;13.566;2023-05-12T09:17:18;101095.97;;;21.17;30.09
5679;BME280;2862;52.560;13.566;2023-05-12T09:27:24;101076.44;;;20.99;29.71
5679;BME280;2862;52.560;13.566;2023-05-12T09:37:31;101084.50;;;20.92;31.11
5679;BME280;2862;52.560;13.566;2023-05-12T09:47:35;101070.28;;;20.90;28.37
5679;BME280;2862;52.560;13.566;2023-05-12T09:57:42;101077.66;;;21.26;28.55
5679;BME280;2862;52.560;13.566;2023-05-12T10:07:48;101074.22;;;21.02;28.60
5679;BME280;2862;52.560;13.566;2023-05-12T10:17:54;101096.13;;;20.71;28.13
5679;BME280;2862;52.560;13.566;2023-05-12T10:27:58;101087.59;;;20.59;29.35
5679;BME280;2862;52.560;13.566;2023-05-12T10:38:06;101057.25;;;21.30;28.95
5679;BME280;2862;52.560;13.566;2023-05-12T10:48:14;101056.56;;;21.57;28.46
5679;BME280;2862;52.560;13.566;2023-05-12T10:58:19;101049.91;;;21.45;29.66
5679;BME280;2862;52.560;13.566;2023-05-12T11:08:23;101066.16;;;20.94;30.20
5679;BME280;2862;52.560;13.566;2023-05-12T11:18:28;101040.66;;;21.39;29.20
5679;BME280;2862;52.560;13.566;2023-05-12T11:28:38;101047.28;;;21.52;29.41
5679;BME280;2862;52.560;13.566;2023-05-12T11:38:48;101055.44;;;21.52;30.01
5679;BME280;2862;52.560;13.566;2023-05-12T11:48:55;101050.50;;;21.40;31.08
5679;BME280;2862;52.560;13.566;2023-05-12T11:59:00;101070.38;;;21.11;30.14
5679;BME280;2862;52.560;13.566;2023-05-12T12:09:03;101068.97;;;21.01;29.88
5679;BME280;2862;52.560;13.566;2023-05-12T12:19:07;101062.78;;;21.36;30.70
5679;BME280;2862;52.560;13.566;2023-05-12T12:29:11;101044.47;;;21.45;29.68
5679;BME280;2862;52.560;13.566;2023-05-12T12:39:16;101052.41;;;21.83;29.02
5679;BME280;2862;52.560;13.566;2023-05-12T12:49:20;101064.44;;;21.37;28.66
5679;BME280;2862;52.560;13.566;2023-05-12T12:59:25;101053.22;;;21.40;29.13
5679;BME280;2862;52.560;13.566;2023-05-12T13:09:28;101041.00;;;20.92;29.56
5679;BME280;2862;52.560;13.566;2023-05-12T13:19:32;101036.31;;;21.45;30.05
5679;BME280;2862;52.560;13.566;2023-05-12T13:29:37;101041.06;;;21.58;28.88
5679;BME280;2862;52.560;13.566;2023-05-12T13:39:44;101042.09;;;22.14;26.91
5679;BME280;2862;52.560;13.566;2023-05-12T13:49:47;101033.63;;;22.31;27.64
5679;BME280;2862;52.560;13.566;2023-05-12T13:59:52;101034.72;;;21.72;28.10
5679;BME280;2862;52.560;13.566;2023-05-12T14:09:58;101047.41;;;21.65;28.71
5679;BME280;2862;52.560;13.566;2023-05-12T14:20:05;101019.97;;;22.03;29.38
5679;BME280;2862;52.560;13.566;2023-05-12T14:30:09;101046.09;;;22.18;29.17
5679;BME280;2862;52.560;13.566;2023-05-12T14:40:13;101024.88;;;21.92;28.96
5679;BME280;2862;52.560;13.566;2023-05-12T14:50:16;101041.59;;;21.89;29.30
5679;BME280;2862;52.560;13.566;2023-05-12T15:00:22;101035.19;;;21.97;29.38
5679;BME280;2862;52.560;13.566;2023-05-12T15:10:25;101040.63;;;21.76;29.06
5679;BME280;2862;52.560;13.566;2023-05-12T15:20:30;101033.16;;;21.84;29.31
5679;BME280;2862;52.560;13.566;2023-05-12T15:30:33;101047.97;;;21.60;29.28
5679;BME280;2862;52.560;13.566;2023-05-12T15:40:38;101029.28;;;21.72;29.37
5679;BME280;2862;52.560;13.566;2023-05-12T15:50:41;101028.78;;;21.47;29.52
5679;BME280;2862;52.560;13.566;2023-05-12T16:00:47;101035.88;;;21.63;29.56
5679;BME280;2862;52.560;13.566;2023-05-12T16:10:50;101017.44;;;21.43;29.24
5679;BME280;2862;52.560;13.566;2023-05-12T16:20:55;101024.63;;;21.30;29.33
5679;BME280;2862;52.560;13.566;2023-05-12T16:30:58;101025.53;;;21.22;29.45
5679;BME280;2862;52.560;13.566;2023-05-12T16:41:03;101024.88;;;21.20;29.78
5679;BME280;2862;52.560;13.566;2023-05-12T16:51:07;101019.34;;;21.13;30.25
5679;BME280;2862;52.560;13.566;2023-05-12T17:01:12;101024.97;;;20.97;30.15
5679;BME280;2862;52.560;13.566;2023-05-12T17:11:15;101023.03;;;21.06;31.00
5679;BME280;2862;52.560;13.566;2023-05-12T17:21:20;101035.19;;;20.80;31.49
5679;BME280;2862;52.560;13.566;2023-05-12T17:31:22;101052.63;;;20.56;31.30
5679;BME280;2862;52.560;13.566;2023-05-12T17:41:35;101049.72;;;20.35;31.47
5679;BME280;2862;52.560;13.566;2023-05-12T17:51:39;101057.91;;;20.12;32.07
5679;BME280;2862;52.560;13.566;2023-05-12T18:01:46;101074.88;;;19.91;32.24
5679;BME280;2862;52.560;13.566;2023-05-12T18:11:49;101075.31;;;19.72;32.71
5679;BME280;2862;52.560;13.566;2023-05-12T18:21:54;101082.66;;;19.55;33.43
5679;BME280;2862;52.560;13.566;2023-05-12T18:31:57;101080.22;;;19.37;33.70
5679;BME280;2862;52.560;13.566;2023-05-12T18:42:02;101093.22;;;19.02;34.09
5679;BME280;2862;52.560;13.566;2023-05-12T18:52:05;101110.19;;;18.80;34.60
5679;BME280;2862;52.560;13.566;2023-05-12T19:02:10;101116.81;;;18.53;35.68
5679;BME280;2862;52.560;13.566;2023-05-12T19:12:13;101119.69;;;18.27;36.07
5679;BME280;2862;52.560;13.566;2023-05-12T19:22:18;101134.38;;;18.08;36.90
5679;BME280;2862;52.560;13.566;2023-05-12T19:32:24;101142.81;;;17.97;38.15
5679;BME280;2862;52.560;13.566;2023-05-12T19:42:29;101145.66;;;17.79;37.95
5679;BME280;2862;52.560;13.566;2023-05-12T19:52:34;101148.56;;;17.60;38.58
5679;BME280;2862;52.560;13.566;2023-05-12T20:02:39;101160.19;;;17.18;40.09
5679;BME280;2862;52.560;13.566;2023-05-12T20:12:42;101174.78;;;16.99;40.80
5679;BME280;2862;52.560;13.566;2023-05-12T20:22:47;101169.47;;;16.89;41.22
5679;BME280;2862;52.560;13.566;2023-05-12T20:32:51;101175.59;;;16.73;41.88
5679;BME280;2862;52.560;13.566;2023-05-12T20:42:55;101173.59;;;16.58;42.51
5679;BME280;2862;52.560;13.566;2023-05-12T20:52:58;101180.75;;;16.49;42.78
5679;BME280;2862;52.560;13.566;2023-05-12T21:03:03;101187.47;;;16.27;43.79
5679;BME280;2862;52.560;13.566;2023-05-12T21:13:07;101191.50;;;16.23;43.99
5679;BME280;2862;52.560;13.566;2023-05-12T21:23:12;101208.25;;;16.17;44.26
5679;BME280;2862;52.560;13.566;2023-05-12T21:33:16;101202.75;;;15.91;44.94
5679;BME280;2862;52.560;13.566;2023-05-12T21:43:20;101205.66;;;15.80;45.54
5679;BME280;2862;52.560;13.566;2023-05-12T21:53:24;101203.75;;;15.53;46.25
5679;BME280;2862;52.560;13.566;2023-05-12T22:03:28;101203.22;;;15.49;46.32
5679;BME280;2862;52.560;13.566;2023-05-12T22:13:31;101201.66;;;15.47;46.11
5679;BME280;2862;52.560;13.566;2023-05-12T22:23:36;101211.16;;;15.41;46.62
5679;BME280;2862;52.560;13.566;2023-05-12T22:33:40;101204.84;;;15.23;46.81
5679;BME280;2862;52.560;13.566;2023-05-12T22:43:44;101202.59;;;15.18;46.87
5679;BME280;2862;52.560;13.566;2023-05-12T22:53:47;101211.97;;;15.14;46.67
5679;BME280;2862;52.560;13.566;2023-05-12T23:03:52;101211.97;;;15.14;46.88
5679;BME280;2862;52.560;13.566;2023-05-12T23:13:55;101211.25;;;15.02;47.18
5679;BME280;2862;52.560;13.566;2023-05-12T23:24:00;101200.25;;;14.86;47.58
5679;BME280;2862;52.560;13.566;2023-05-12T23:34:04;101209.34;;;14.75;47.99
5679;BME280;2862;52.560;13.566;2023-05-12T23:44:08;101197.59;;;14.57;48.50
5679;BME280;2862;52.560;13.566;2023-05-12T23:54:12;101191.22;;;14.48;48.74
